createdAt,value
2019-05-16T00:00:03.315Z,98685.05
2019-05-16T00:02:37.709Z,98687.02
2019-05-16T00:05:09.323Z,98704.26
2019-05-16T00:07:41.507Z,98704.26
2019-05-16T00:10:13.366Z,98708.64
2019-05-16T00:12:45.232Z,98710.34
2019-05-16T00:15:18.180Z,98714.50
2019-05-16T00:17:50.123Z,98721.30
2019-05-16T00:20:21.929Z,98725.52
2019-05-16T00:22:53.778Z,98731.34
2019-05-16T00:25:25.477Z,98733.15
2019-05-16T00:27:58.670Z,98736.42
2019-05-16T00:30:30.762Z,98736.42
2019-05-16T00:33:02.476Z,98744.21
2019-05-16T00:35:34.394Z,98780.77
2019-05-16T00:38:08.427Z,98780.77
2019-05-16T00:40:39.737Z,98866.13
2019-05-16T00:43:11.247Z,98866.13
2019-05-16T00:45:43.145Z,98901.66
2019-05-16T00:48:14.866Z,98865.56
2019-05-16T00:50:48.178Z,98877.55
2019-05-16T00:53:20.135Z,98877.55
2019-05-16T00:55:53.100Z,98905.50
2019-05-16T00:58:25.568Z,98900.86
2019-05-16T01:00:59.313Z,98879.72
2019-05-16T01:03:31.154Z,98879.72
2019-05-16T01:06:15.443Z,98892.27
2019-05-16T01:08:38.548Z,98881.31
2019-05-16T01:11:10.115Z,98890.44
2019-05-16T01:13:41.880Z,98888.67
2019-05-16T01:16:13.603Z,98888.67
2019-05-16T01:18:45.352Z,98900.31
2019-05-16T01:21:18.540Z,98902.24
2019-05-16T01:23:50.353Z,98911.63
2019-05-16T01:26:22.404Z,98911.63
2019-05-16T01:28:54.762Z,98922.62
2019-05-16T01:31:27.985Z,98924.93
2019-05-16T01:33:59.873Z,98936.23
2019-05-16T01:36:36.854Z,98930.86
2019-05-16T01:39:07.981Z,98928.02
2019-05-16T01:41:39.440Z,98924.06
2019-05-16T01:44:11.198Z,98924.06
2019-05-16T01:46:47.935Z,98921.11
2019-05-16T01:49:18.985Z,98931.77
2019-05-16T01:51:50.764Z,98932.13
2019-05-16T01:54:22.822Z,98939.78
2019-05-16T01:56:54.750Z,98939.88
2019-05-16T01:59:28.417Z,98939.88
2019-05-16T02:02:00.917Z,98941.31
2019-05-16T02:04:34.364Z,98933.03
2019-05-16T02:07:08.377Z,98941.98
2019-05-16T02:09:39.507Z,98939.67
2019-05-16T02:12:11.077Z,98942.90
2019-05-16T02:14:42.825Z,98942.90
2019-05-16T02:17:14.751Z,98943.68
2019-05-16T02:19:48.395Z,98948.71
2019-05-16T02:22:19.819Z,98951.59
2019-05-16T02:24:51.496Z,98951.59
2019-05-16T02:27:23.034Z,98950.19
2019-05-16T02:29:54.903Z,98957.49
2019-05-16T02:32:26.560Z,98957.49
2019-05-16T02:35:00.922Z,98954.45
2019-05-16T02:37:34.850Z,98966.20
2019-05-16T02:40:06.044Z,98963.68
2019-05-16T02:42:41.503Z,98963.68
2019-05-16T02:45:11.496Z,98974.73
2019-05-16T02:47:44.244Z,98994.09
2019-05-16T02:50:16.685Z,98994.09
2019-05-16T02:52:51.381Z,99000.52
2019-05-16T02:55:22.043Z,98997.63
2019-05-16T02:57:53.885Z,98990.19
2019-05-16T03:00:42.677Z,98990.19
2019-05-16T03:03:12.523Z,99001.56
2019-05-16T03:05:47.099Z,99012.14
2019-05-16T03:08:21.395Z,99012.14
2019-05-16T03:10:53.692Z,99018.95
2019-05-16T03:13:26.963Z,99018.81
2019-05-16T03:16:01.363Z,99018.81
2019-05-16T03:18:34.289Z,99023.45
2019-05-16T03:21:11.038Z,99023.80
2019-05-16T03:23:42.312Z,99025.77
2019-05-16T03:26:14.391Z,99027.80
2019-05-16T03:28:46.192Z,99031.13
2019-05-16T03:31:23.857Z,99015.95
2019-05-16T03:33:59.735Z,99020.44
2019-05-16T03:36:25.867Z,99020.44
2019-05-16T03:38:57.659Z,99037.09
2019-05-16T03:41:30.899Z,99038.92
2019-05-16T03:44:03.228Z,99040.10
2019-05-16T03:46:35.126Z,99027.77
2019-05-16T03:49:11.051Z,99019.44
2019-05-16T03:51:41.684Z,99019.44
2019-05-16T03:54:13.730Z,99014.98
2019-05-16T03:56:45.892Z,99022.94
2019-05-16T03:59:17.813Z,99034.12
2019-05-16T04:01:51.058Z,99027.09
2019-05-16T04:04:23.245Z,99029.00
2019-05-16T04:06:54.947Z,99025.77
2019-05-16T04:09:26.762Z,99025.77
2019-05-16T04:12:01.530Z,99024.79
2019-05-16T04:14:31.835Z,99018.58
2019-05-16T04:17:03.674Z,99018.80
2019-05-16T04:19:35.454Z,99018.80
2019-05-16T04:22:10.605Z,99009.23
2019-05-16T04:24:42.450Z,99018.06
2019-05-16T04:27:15.299Z,99015.95
2019-05-16T04:29:47.156Z,98999.61
2019-05-16T04:32:20.883Z,98998.44
2019-05-16T04:34:52.534Z,98999.11
2019-05-16T04:37:26.217Z,98992.16
2019-05-16T04:40:01.211Z,98992.16
2019-05-16T04:42:33.751Z,98985.17
2019-05-16T04:45:05.529Z,98988.20
2019-05-16T04:47:37.317Z,98991.92
2019-05-16T04:50:11.573Z,98991.92
2019-05-16T04:52:43.842Z,98986.88
2019-05-16T04:55:15.754Z,98990.97
2019-05-16T04:57:51.302Z,98989.41
2019-05-16T05:00:26.212Z,98989.41
2019-05-16T05:03:01.198Z,98997.64
2019-05-16T05:05:33.419Z,98990.08
2019-05-16T05:08:05.297Z,98990.08
2019-05-16T05:10:37.283Z,98992.33
2019-05-16T05:13:11.976Z,98992.33
2019-05-16T05:15:44.157Z,98994.31
2019-05-16T05:18:15.998Z,98992.31
2019-05-16T05:20:47.537Z,98978.72
2019-05-16T05:23:20.972Z,98981.33
2019-05-16T05:25:52.991Z,98965.22
2019-05-16T05:28:24.789Z,98965.22
2019-05-16T05:30:56.718Z,98960.77
2019-05-16T05:33:30.193Z,98962.38
2019-05-16T05:36:01.475Z,98955.41
2019-05-16T05:38:33.409Z,98955.48
2019-05-16T05:41:05.305Z,98950.38
2019-05-16T05:43:39.620Z,98946.97
2019-05-16T05:46:12.721Z,98935.79
2019-05-16T05:48:44.239Z,98933.27
2019-05-16T05:51:16.327Z,98930.38
2019-05-16T05:53:48.166Z,98927.28
2019-05-16T05:56:20.372Z,98926.58
2019-05-16T05:58:52.230Z,98919.15
2019-05-16T06:01:24.179Z,98913.78
2019-05-16T06:03:55.769Z,98913.78
2019-05-16T06:06:30.246Z,98909.61
2019-05-16T06:09:01.417Z,98906.48
2019-05-16T06:11:33.346Z,98909.20
2019-05-16T06:14:05.415Z,98917.57
2019-05-16T06:16:40.057Z,98908.38
2019-05-16T06:19:11.308Z,98902.30
2019-05-16T06:21:44.661Z,98897.88
2019-05-16T06:24:19.987Z,98896.84
2019-05-16T06:26:50.906Z,98900.83
2019-05-16T06:29:22.710Z,98893.02
2019-05-16T06:31:54.370Z,98890.36
2019-05-16T06:34:26.687Z,98884.03
2019-05-16T06:37:00.545Z,98890.20
2019-05-16T06:39:41.763Z,98881.37
2019-05-16T06:42:09.830Z,98873.28
2019-05-16T06:44:41.382Z,98868.03
2019-05-16T06:47:19.644Z,98858.73
2019-05-16T06:49:47.378Z,98855.81
2019-05-16T06:52:19.727Z,98856.22
2019-05-16T06:54:53.830Z,98850.98
2019-05-16T06:57:25.220Z,98843.67
2019-05-16T06:59:57.156Z,98847.03
2019-05-16T07:02:33.616Z,98837.98
2019-05-16T07:05:04.101Z,98836.61
2019-05-16T07:07:35.939Z,98834.22
2019-05-16T07:10:09.761Z,98832.19
2019-05-16T07:12:42.553Z,98832.35
2019-05-16T07:15:15.454Z,98818.78
2019-05-16T07:17:47.918Z,98818.78
2019-05-16T07:20:21.290Z,98818.78
2019-05-16T07:22:53.179Z,98810.04
2019-05-16T07:25:25.344Z,98807.23
2019-05-16T07:27:57.232Z,98802.66
2019-05-16T07:30:30.309Z,98799.77
2019-05-16T07:33:03.776Z,98793.29
2019-05-16T07:35:35.841Z,98793.29
2019-05-16T07:38:10.575Z,98784.09
2019-05-16T07:40:42.569Z,98770.13
2019-05-16T07:43:14.868Z,98770.13
2019-05-16T07:45:51.292Z,98764.44
2019-05-16T07:48:23.267Z,98755.52
2019-05-16T07:50:55.541Z,98755.52
2019-05-16T07:53:32.785Z,98751.15
2019-05-16T07:56:02.069Z,98746.70
2019-05-16T07:58:34.303Z,98743.96
2019-05-16T08:01:24.968Z,98748.43
2019-05-16T08:03:56.592Z,98736.88
2019-05-16T08:06:33.670Z,98736.97
2019-05-16T08:09:07.676Z,98737.84
2019-05-16T08:11:40.871Z,98728.91
2019-05-16T08:14:12.641Z,98729.44
2019-05-16T08:16:44.162Z,98729.30
2019-05-16T08:19:15.954Z,98722.25
2019-05-16T08:21:50.376Z,98713.75
2019-05-16T08:24:21.674Z,98714.16
2019-05-16T08:26:53.179Z,98707.11
2019-05-16T08:29:25.202Z,98703.83
2019-05-16T08:31:56.911Z,98707.63
2019-05-16T08:34:32.010Z,98703.67
2019-05-16T08:37:01.975Z,98701.93
2019-05-16T08:39:34.054Z,98691.84
2019-05-16T08:42:08.486Z,98691.84
2019-05-16T08:44:41.848Z,98692.66
2019-05-16T08:47:13.700Z,98687.48
2019-05-16T08:49:46.236Z,98687.48
2019-05-16T08:52:22.380Z,98687.73
2019-05-16T08:54:52.022Z,98676.97
2019-05-16T08:57:27.824Z,98675.11
2019-05-16T08:59:57.304Z,98664.69
2019-05-16T09:02:35.765Z,98665.34
2019-05-16T09:05:04.956Z,98658.97
2019-05-16T09:07:36.720Z,98658.97
2019-05-16T09:10:39.231Z,98661.19
2019-05-16T09:12:41.727Z,98658.17
2019-05-16T09:15:13.406Z,98653.58
2019-05-16T09:17:47.909Z,98646.20
2019-05-16T09:20:19.391Z,98648.21
2019-05-16T09:22:51.562Z,98643.75
2019-05-16T09:25:23.242Z,98643.75
2019-05-16T09:27:56.942Z,98638.78
2019-05-16T09:30:29.978Z,98642.67
2019-05-16T09:33:01.621Z,98640.34
2019-05-16T09:35:33.408Z,98627.34
2019-05-16T09:38:07.219Z,98627.34
2019-05-16T09:40:38.978Z,98633.14
2019-05-16T09:43:10.943Z,98626.67
2019-05-16T09:45:43.181Z,98628.59
2019-05-16T09:48:18.449Z,98622.56
2019-05-16T09:50:48.895Z,98619.78
2019-05-16T09:53:20.885Z,98611.72
2019-05-16T09:55:52.577Z,98610.53
2019-05-16T09:58:24.569Z,98609.90
2019-05-16T10:00:57.495Z,98600.70
2019-05-16T10:03:29.988Z,98600.70
2019-05-16T10:06:01.502Z,98594.79
2019-05-16T10:08:34.227Z,98596.57
2019-05-16T10:11:06.610Z,98596.57
2019-05-16T10:13:38.670Z,98581.83
2019-05-16T10:16:10.411Z,98584.73
2019-05-16T10:18:42.184Z,98586.02
2019-05-16T10:21:36.952Z,98584.31
2019-05-16T10:24:07.443Z,98568.61
2019-05-16T10:26:39.260Z,98571.02
2019-05-16T10:29:11.142Z,98571.02
2019-05-16T10:31:49.375Z,98567.63
2019-05-16T10:34:17.361Z,98562.40
2019-05-16T10:36:49.252Z,98565.59
2019-05-16T10:39:21.308Z,98565.59
2019-05-16T10:41:52.902Z,98572.22
2019-05-16T10:44:24.587Z,98572.22
2019-05-16T10:46:56.607Z,98572.89
2019-05-16T10:49:36.866Z,98576.98
2019-05-16T10:52:01.887Z,98576.98
2019-05-16T10:54:33.269Z,98564.16
2019-05-16T10:57:07.687Z,98571.61
2019-05-16T10:59:57.998Z,98561.47
2019-05-16T11:02:12.028Z,98561.47
2019-05-16T11:04:57.478Z,98567.66
2019-05-16T11:07:17.386Z,98567.66
2019-05-16T11:09:57.859Z,98564.03
2019-05-16T11:12:43.147Z,98557.81
2019-05-16T11:14:57.025Z,98556.42
2019-05-16T11:17:29.100Z,98561.88
2019-05-16T11:20:00.728Z,98564.73
2019-05-16T11:22:32.672Z,98564.73
2019-05-16T11:25:18.497Z,98571.83
2019-05-16T11:27:37.797Z,98574.53
2019-05-16T11:30:10.395Z,98574.53
2019-05-16T11:32:42.431Z,98570.32
2019-05-16T11:35:17.117Z,98573.74
2019-05-16T11:37:51.708Z,98573.74
2019-05-16T11:40:23.779Z,98561.14
2019-05-16T11:43:06.683Z,98561.14
2019-05-16T11:45:28.766Z,98567.44
2019-05-16T11:48:00.708Z,98567.44
2019-05-16T11:50:32.340Z,98566.34
2019-05-16T11:53:04.069Z,98567.16
2019-05-16T11:55:50.652Z,98566.89
2019-05-16T11:58:09.827Z,98566.89
2019-05-16T12:00:41.847Z,98564.00
2019-05-16T12:03:13.588Z,98567.35
2019-05-16T12:05:48.299Z,98567.35
2019-05-16T12:08:21.315Z,98559.67
2019-05-16T12:10:53.247Z,98557.93
2019-05-16T12:13:31.797Z,98555.14
2019-05-16T12:15:58.618Z,98556.85
2019-05-16T12:18:30.033Z,98556.85
2019-05-16T12:21:01.810Z,98556.89
2019-05-16T12:23:33.793Z,98564.67
2019-05-16T12:26:07.813Z,98564.67
2019-05-16T12:28:38.495Z,98564.44
2019-05-16T12:31:10.330Z,98562.09
2019-05-16T12:33:42.020Z,98562.09
2019-05-16T12:36:13.887Z,98557.58
2019-05-16T12:38:46.749Z,98561.50
2019-05-16T12:41:18.694Z,98562.09
2019-05-16T12:43:53.389Z,98547.28
2019-05-16T12:46:23.546Z,98547.28
2019-05-16T12:48:57.577Z,98541.66
2019-05-16T12:51:29.651Z,98547.58
2019-05-16T12:54:01.418Z,98544.75
2019-05-16T12:56:33.396Z,98545.58
2019-05-16T12:59:05.755Z,98545.92
2019-05-16T13:01:38.465Z,98550.55
2019-05-16T13:04:12.503Z,98556.12
2019-05-16T13:06:43.586Z,98551.77
2019-05-16T13:09:18.263Z,98549.94
2019-05-16T13:11:48.711Z,98556.96
2019-05-16T13:14:20.388Z,98555.17
2019-05-16T13:16:51.988Z,98555.17
2019-05-16T13:19:23.767Z,98559.83
2019-05-16T13:21:57.624Z,98561.02
2019-05-16T13:24:28.768Z,98555.55
2019-05-16T13:27:00.366Z,98554.75
2019-05-16T13:29:32.147Z,98562.11
2019-05-16T13:32:03.645Z,98569.39
2019-05-16T13:34:38.099Z,98565.46
2019-05-16T13:37:08.694Z,98563.94
2019-05-16T13:39:40.444Z,98562.41
2019-05-16T13:42:12.190Z,98562.41
2019-05-16T13:44:44.143Z,98569.63
2019-05-16T13:47:17.366Z,98570.14
2019-05-16T13:49:49.280Z,98570.14
2019-05-16T13:52:21.807Z,98571.17
2019-05-16T13:54:53.675Z,98582.84
2019-05-16T13:57:28.256Z,98589.75
2019-05-16T13:59:59.174Z,98606.77
2019-05-16T14:02:30.647Z,98606.77
2019-05-16T14:05:03.151Z,98607.72
2019-05-16T14:07:37.473Z,98605.09
2019-05-16T14:10:09.746Z,98588.25
2019-05-16T14:12:41.961Z,98588.25
2019-05-16T14:15:14.570Z,98586.47
2019-05-16T14:17:48.815Z,98586.73
2019-05-16T14:20:20.250Z,98586.73
2019-05-16T14:22:52.091Z,98587.76
2019-05-16T14:25:23.760Z,98587.27
2019-05-16T14:27:56.824Z,98583.10
2019-05-16T14:30:28.733Z,98599.19
2019-05-16T14:33:01.895Z,98599.19
2019-05-16T14:35:33.889Z,98597.67
2019-05-16T14:38:05.640Z,98599.14
2019-05-16T14:40:37.642Z,98602.60
2019-05-16T14:43:09.534Z,98599.06
2019-05-16T14:45:41.193Z,98599.06
2019-05-16T14:48:12.970Z,98605.39
2019-05-16T14:50:47.122Z,98597.95
2019-05-16T14:53:18.234Z,98601.98
2019-05-16T14:55:50.344Z,98602.06
2019-05-16T14:58:21.925Z,98608.20
2019-05-16T15:00:53.587Z,98608.20
2019-05-16T15:03:27.296Z,98606.94
2019-05-16T15:05:59.102Z,98645.73
2019-05-16T15:08:30.880Z,98645.73
2019-05-16T15:11:02.913Z,98644.44
2019-05-16T15:13:34.648Z,98638.17
2019-05-16T15:16:07.638Z,98637.86
2019-05-16T15:18:39.983Z,98639.73
2019-05-16T15:21:11.824Z,98649.48
2019-05-16T15:23:43.690Z,98654.06
2019-05-16T15:26:18.046Z,98662.39
2019-05-16T15:28:51.923Z,98661.95
2019-05-16T15:31:23.596Z,98669.28
2019-05-16T15:33:57.133Z,98683.64
2019-05-16T15:36:27.985Z,98683.64
2019-05-16T15:38:59.501Z,98679.28
2019-05-16T15:41:31.389Z,98684.00
2019-05-16T15:44:02.942Z,98685.11
2019-05-16T15:46:37.013Z,98698.69
2019-05-16T15:49:09.563Z,98712.11
2019-05-16T15:51:42.759Z,98710.32
2019-05-16T15:54:19.889Z,98710.32
2019-05-16T15:56:52.832Z,98714.59
2019-05-16T15:59:27.007Z,98718.98
2019-05-16T16:01:58.519Z,98718.98
2019-05-16T16:04:30.403Z,98720.64
2019-05-16T16:07:02.249Z,98723.18
2019-05-16T16:09:37.842Z,98726.36
2019-05-16T16:12:10.787Z,98728.22
2019-05-16T16:14:43.077Z,98737.03
2019-05-16T16:17:17.457Z,98733.27
2019-05-16T16:19:48.394Z,98733.27
2019-05-16T16:25:22.847Z,98740.79
2019-05-16T16:27:57.993Z,98740.79
2019-05-16T16:30:32.516Z,98736.41
2019-05-16T16:33:20.827Z,98727.20
2019-05-16T16:35:38.144Z,98727.20
2019-05-16T16:38:09.793Z,98732.94
2019-05-16T16:40:41.797Z,98733.51
2019-05-16T16:43:13.634Z,98734.42
2019-05-16T16:45:47.676Z,98731.34
2019-05-16T16:48:18.672Z,98732.03
2019-05-16T16:50:50.249Z,98736.48
2019-05-16T16:53:22.114Z,98740.62
2019-05-16T16:55:53.667Z,98740.62
2019-05-16T16:58:26.590Z,98736.29
2019-05-16T17:01:01.609Z,98732.73
2019-05-16T17:03:33.519Z,98738.31
2019-05-16T17:06:05.169Z,98735.31
2019-05-16T17:08:37.669Z,98735.31
2019-05-16T17:11:12.396Z,98733.02
2019-05-16T17:13:44.381Z,98733.02
2019-05-16T17:16:23.058Z,98738.78
2019-05-16T17:18:49.394Z,98741.30
2019-05-16T17:21:20.894Z,98741.30
2019-05-16T17:23:52.580Z,98739.27
2019-05-16T17:26:27.218Z,98741.84
2019-05-16T17:28:57.762Z,98738.88
2019-05-16T17:31:31.816Z,98742.19
2019-05-16T17:34:03.674Z,98749.45
2019-05-16T17:36:38.622Z,98752.11
2019-05-16T17:39:10.624Z,98752.88
2019-05-16T17:41:42.964Z,98752.92
2019-05-16T17:44:14.960Z,98752.92
2019-05-16T17:46:46.828Z,98756.13
2019-05-16T17:49:18.387Z,98753.48
2019-05-16T17:51:51.981Z,98753.48
2019-05-16T17:54:23.938Z,98749.14
2019-05-16T17:56:56.719Z,98748.90
2019-05-16T17:59:28.628Z,98746.64
2019-05-16T18:02:00.265Z,98750.14
2019-05-16T18:04:32.293Z,98751.94
2019-05-16T18:07:04.129Z,98750.92
2019-05-16T18:09:36.853Z,98750.92
2019-05-16T18:12:08.538Z,98749.44
2019-05-16T18:14:40.171Z,98744.17
2019-05-16T18:17:11.838Z,98729.16
2019-05-16T18:19:43.692Z,98729.16
2019-05-16T18:22:15.287Z,98733.06
2019-05-16T18:24:47.449Z,98733.06
2019-05-16T18:27:19.390Z,98731.47
2019-05-16T18:29:51.268Z,98736.54
2019-05-16T18:32:23.047Z,98732.98
2019-05-16T18:34:56.445Z,98733.18
2019-05-16T18:37:27.937Z,98727.56
2019-05-16T18:39:59.682Z,98740.30
2019-05-16T18:42:31.865Z,98737.63
2019-05-16T18:45:03.431Z,98736.30
2019-05-16T18:47:37.581Z,98736.30
2019-05-16T18:50:09.468Z,98744.26
2019-05-16T18:52:41.731Z,98733.93
2019-05-16T18:55:13.617Z,98733.93
2019-05-16T18:57:47.315Z,98737.30
2019-05-16T19:00:19.096Z,98732.97
2019-05-16T19:02:50.882Z,98732.97
2019-05-16T19:05:22.468Z,98733.70
2019-05-16T19:07:56.250Z,98732.69
2019-05-16T19:10:29.283Z,98732.69
2019-05-16T19:13:01.138Z,98728.03
2019-05-16T19:15:33.236Z,98726.36
2019-05-16T19:18:06.553Z,98722.97
2019-05-16T19:20:38.594Z,98722.97
2019-05-16T19:23:10.453Z,98708.69
2019-05-16T19:25:42.319Z,98704.41
2019-05-16T19:28:14.121Z,98699.56
2019-05-16T19:30:46.575Z,98699.56
2019-05-16T19:33:18.384Z,98696.28
2019-05-16T19:35:50.002Z,98690.38
2019-05-16T19:38:21.533Z,98690.38
2019-05-16T19:40:53.215Z,98693.24
2019-05-16T19:43:26.468Z,98690.03
2019-05-16T19:45:58.718Z,98701.45
2019-05-16T19:48:30.602Z,98701.45
2019-05-16T19:51:02.709Z,98702.72
2019-05-16T19:53:36.339Z,98702.72
2019-05-16T19:56:09.212Z,98702.22
2019-05-16T19:58:40.686Z,98692.45
2019-05-16T20:01:12.404Z,98692.45
2019-05-16T20:03:44.051Z,98685.73
2019-05-16T20:06:16.845Z,98690.57
2019-05-16T20:08:48.569Z,98690.57
2019-05-16T20:11:20.337Z,98684.86
2019-05-16T20:13:52.087Z,98677.94
2019-05-16T20:16:23.805Z,98677.94
2019-05-16T20:18:56.146Z,98666.72
2019-05-16T20:21:28.129Z,98660.45
2019-05-16T20:23:59.872Z,98660.45
2019-05-16T20:26:31.588Z,98659.56
2019-05-16T20:29:03.383Z,98652.93
2019-05-16T20:31:36.749Z,98652.93
2019-05-16T20:34:09.440Z,98654.66
2019-05-16T20:36:41.294Z,98657.03
2019-05-16T20:39:13.218Z,98654.10
2019-05-16T20:41:44.764Z,98654.10
2019-05-16T20:44:17.396Z,98664.66
2019-05-16T20:46:49.698Z,98664.66
2019-05-16T20:49:21.552Z,98665.53
2019-05-16T20:51:54.071Z,98666.00
2019-05-16T20:54:26.865Z,98667.64
2019-05-16T20:56:58.742Z,98662.25
2019-05-16T20:59:30.646Z,98668.91
2019-05-16T21:02:02.580Z,98670.91
2019-05-16T21:04:34.459Z,98675.11
2019-05-16T21:07:10.731Z,98678.33
2019-05-16T21:09:39.867Z,98679.09
2019-05-16T21:12:11.595Z,98689.51
2019-05-16T21:14:43.493Z,98689.51
2019-05-16T21:17:17.267Z,98691.15
2019-05-16T21:19:48.496Z,98686.19
2019-05-16T21:22:20.352Z,98685.59
2019-05-16T21:24:51.992Z,98681.31
2019-05-16T21:27:26.112Z,98684.98
2019-05-16T21:29:57.457Z,98692.28
2019-05-16T21:32:29.303Z,98692.28
2019-05-16T21:35:01.486Z,98705.52
2019-05-16T21:37:33.362Z,98705.52
2019-05-16T21:40:08.450Z,98705.52
2019-05-16T21:42:43.172Z,98703.52
2019-05-16T21:45:14.911Z,98695.27
2019-05-16T21:47:47.073Z,98695.27
2019-05-16T21:50:19.181Z,98687.48
2019-05-16T21:52:51.100Z,98696.09
2019-05-16T21:55:22.995Z,98684.47
2019-05-16T21:57:54.674Z,98684.47
2019-05-16T22:00:33.203Z,98687.97
2019-05-16T22:03:08.512Z,98680.52
2019-05-16T22:05:40.752Z,98691.27
2019-05-16T22:08:12.871Z,98684.02
2019-05-16T22:10:46.505Z,98687.58
2019-05-16T22:13:18.560Z,98687.92
2019-05-16T22:15:51.515Z,98689.30
2019-05-16T22:18:23.698Z,98685.52
2019-05-16T22:20:57.432Z,98683.02
2019-05-16T22:23:29.073Z,98686.27
2019-05-16T22:26:00.811Z,98688.52
2019-05-16T22:28:33.042Z,98684.89
2019-05-16T22:31:07.179Z,98678.69
2019-05-16T22:33:38.482Z,98685.31
2019-05-16T22:36:11.033Z,98685.31
2019-05-16T22:38:42.968Z,98682.09
2019-05-16T22:41:14.579Z,98680.77
2019-05-16T22:43:46.710Z,98676.03
2019-05-16T22:46:18.454Z,98668.83
2019-05-16T22:48:50.112Z,98668.83
2019-05-16T22:51:21.813Z,98666.59
2019-05-16T22:53:53.563Z,98676.45
2019-05-16T22:56:26.140Z,98678.28
2019-05-16T22:58:57.974Z,98688.23
2019-05-16T23:01:29.973Z,98695.61
2019-05-16T23:04:01.742Z,98695.61
2019-05-16T23:06:36.218Z,98699.59
2019-05-16T23:09:08.390Z,98704.00
2019-05-16T23:11:40.129Z,98704.00
2019-05-16T23:14:11.856Z,98712.34
2019-05-16T23:16:43.403Z,98720.00
2019-05-16T23:19:17.026Z,98717.56
2019-05-16T23:21:48.273Z,98717.56
2019-05-16T23:24:20.357Z,98718.30
2019-05-16T23:26:52.137Z,98716.80
2019-05-16T23:29:23.758Z,98719.33
2019-05-16T23:31:56.418Z,98719.33
2019-05-16T23:34:28.322Z,98722.09
2019-05-16T23:37:01.085Z,98722.09
2019-05-16T23:39:32.912Z,98723.49
2019-05-16T23:42:06.375Z,98723.49
2019-05-16T23:44:38.505Z,98728.48
2019-05-16T23:47:10.358Z,98731.40
2019-05-16T23:49:42.164Z,98732.77
2019-05-16T23:52:14.078Z,98732.77
2019-05-16T23:54:47.529Z,98735.72
2019-05-16T23:57:19.594Z,98755.48
2019-05-16T23:59:51.223Z,98765.69
